sensor_id;sensor_type;location;lat;lon;timestamp;temperature;humidity
39503;DHT22;26970;49.900;10.774;2023-04-06T00:01:00;0.10;99.90
39503;DHT22;26970;49.900;10.774;2023-04-06T00:03:26;0.10;99.90
39503;DHT22;26970;49.900;10.774;2023-04-06T00:05:52;0.10;99.90
39503;DHT22;26970;49.900;10.774;2023-04-06T00:08:18;0.20;99.90
39503;DHT22;26970;49.900;10.774;2023-04-06T00:10:43;0.10;99.90
39503;DHT22;26970;49.900;10.774;2023-04-06T00:13:09;0.10;99.90
39503;DHT22;26970;49.900;10.774;2023-04-06T00:15:34;0.20;99.90
39503;DHT22;26970;49.900;10.774;2023-04-06T00:18:00;0.20;99.90
39503;DHT22;26970;49.900;10.774;2023-04-06T00:20:26;0.20;99.90
39503;DHT22;26970;49.900;10.774;2023-04-06T00:22:51;0.20;99.90
39503;DHT22;26970;49.900;10.774;2023-04-06T00:25:17;0.10;99.90
39503;DHT22;26970;49.900;10.774;2023-04-06T00:27:43;0.00;99.90
39503;DHT22;26970;49.900;10.774;2023-04-06T00:30:09;-0.10;99.90
39503;DHT22;26970;49.900;10.774;2023-04-06T00:32:35;-0.10;99.90
39503;DHT22;26970;49.900;10.774;2023-04-06T00:35:05;-0.20;99.90
39503;DHT22;26970;49.900;10.774;2023-04-06T00:37:31;-0.20;99.90
39503;DHT22;26970;49.900;10.774;2023-04-06T00:39:57;-0.10;99.90
39503;DHT22;26970;49.900;10.774;2023-04-06T00:42:23;-0.20;99.90
39503;DHT22;26970;49.900;10.774;2023-04-06T00:44:56;-0.10;99.90
39503;DHT22;26970;49.900;10.774;2023-04-06T00:47:22;-0.20;99.90
39503;DHT22;26970;49.900;10.774;2023-04-06T00:49:48;-0.10;99.90
39503;DHT22;26970;49.900;10.774;2023-04-06T00:52:15;-0.10;99.90
39503;DHT22;26970;49.900;10.774;2023-04-06T00:54:40;-0.10;99.90
39503;DHT22;26970;49.900;10.774;2023-04-06T00:57:06;-0.20;99.90
39503;DHT22;26970;49.900;10.774;2023-04-06T00:59:32;-0.20;99.90
39503;DHT22;26970;49.900;10.774;2023-04-06T01:04:26;0.00;99.90
39503;DHT22;26970;49.900;10.774;2023-04-06T01:06:52;0.00;99.90
39503;DHT22;26970;49.900;10.774;2023-04-06T01:09:17;0.10;99.90
39503;DHT22;26970;49.900;10.774;2023-04-06T01:11:43;0.20;99.90
39503;DHT22;26970;49.900;10.774;2023-04-06T01:14:09;1.20;99.90
39503;DHT22;26970;49.900;10.774;2023-04-06T01:16:35;0.20;99.90
39503;DHT22;26970;49.900;10.774;2023-04-06T01:19:01;0.20;99.90
39503;DHT22;26970;49.900;10.774;2023-04-06T01:21:26;0.20;99.90
39503;DHT22;26970;49.900;10.774;2023-04-06T01:23:52;0.00;99.90
39503;DHT22;26970;49.900;10.774;2023-04-06T01:26:17;0.00;99.90
39503;DHT22;26970;49.900;10.774;2023-04-06T01:28:43;-0.10;99.90
39503;DHT22;26970;49.900;10.774;2023-04-06T01:31:10;-0.10;99.90
39503;DHT22;26970;49.900;10.774;2023-04-06T01:33:36;-0.10;99.90
39503;DHT22;26970;49.900;10.774;2023-04-06T01:36:02;0.20;99.90
39503;DHT22;26970;49.900;10.774;2023-04-06T01:38:28;-0.10;99.90
39503;DHT22;26970;49.900;10.774;2023-04-06T01:40:54;-0.10;99.90
39503;DHT22;26970;49.900;10.774;2023-04-06T01:43:20;0.00;99.90
39503;DHT22;26970;49.900;10.774;2023-04-06T01:45:46;-0.10;99.90
39503;DHT22;26970;49.900;10.774;2023-04-06T01:48:11;0.60;99.90
39503;DHT22;26970;49.900;10.774;2023-04-06T01:50:37;-0.20;99.90
39503;DHT22;26970;49.900;10.774;2023-04-06T01:53:03;-0.20;99.90
39503;DHT22;26970;49.900;10.774;2023-04-06T01:55:28;-0.20;99.90
39503;DHT22;26970;49.900;10.774;2023-04-06T01:57:54;-0.30;99.90
39503;DHT22;26970;49.900;10.774;2023-04-06T02:00:19;-0.40;99.90
39503;DHT22;26970;49.900;10.774;2023-04-06T02:02:45;0.20;99.90
39503;DHT22;26970;49.900;10.774;2023-04-06T02:05:11;0.20;99.90
39503;DHT22;26970;49.900;10.774;2023-04-06T02:07:36;-0.60;99.90
39503;DHT22;26970;49.900;10.774;2023-04-06T02:10:02;0.70;99.90
39503;DHT22;26970;49.900;10.774;2023-04-06T02:12:28;-0.70;99.90
39503;DHT22;26970;49.900;10.774;2023-04-06T02:14:54;-0.80;99.90
39503;DHT22;26970;49.900;10.774;2023-04-06T02:17:19;-0.90;99.90
39503;DHT22;26970;49.900;10.774;2023-04-06T02:19:45;-1.00;99.90
39503;DHT22;26970;49.900;10.774;2023-04-06T02:22:10;-1.00;99.90
39503;DHT22;26970;49.900;10.774;2023-04-06T02:24:36;-1.10;99.90
39503;DHT22;26970;49.900;10.774;2023-04-06T02:27:02;-1.20;99.90
39503;DHT22;26970;49.900;10.774;2023-04-06T02:29:27;-1.20;99.90
39503;DHT22;26970;49.900;10.774;2023-04-06T02:31:53;-0.40;99.90
39503;DHT22;26970;49.900;10.774;2023-04-06T02:34:18;-1.20;99.90
39503;DHT22;26970;49.900;10.774;2023-04-06T02:36:45;-1.20;99.90
39503;DHT22;26970;49.900;10.774;2023-04-06T02:39:11;-1.10;99.90
39503;DHT22;26970;49.900;10.774;2023-04-06T02:41:37;-1.10;99.90
39503;DHT22;26970;49.900;10.774;2023-04-06T02:44:02;-0.60;99.90
39503;DHT22;26970;49.900;10.774;2023-04-06T02:46:28;-1.00;99.90
39503;DHT22;26970;49.900;10.774;2023-04-06T02:48:54;-1.00;99.90
39503;DHT22;26970;49.900;10.774;2023-04-06T02:51:20;-1.00;99.90
39503;DHT22;26970;49.900;10.774;2023-04-06T02:53:46;-1.00;99.90
39503;DHT22;26970;49.900;10.774;2023-04-06T02:56:11;-1.10;99.90
39503;DHT22;26970;49.900;10.774;2023-04-06T02:58:37;-1.20;99.90
39503;DHT22;26970;49.900;10.774;2023-04-06T03:01:03;-1.30;99.90
39503;DHT22;26970;49.900;10.774;2023-04-06T03:03:29;-1.30;99.90
39503;DHT22;26970;49.900;10.774;2023-04-06T03:05:55;-1.40;99.90
39503;DHT22;26970;49.900;10.774;2023-04-06T03:08:23;-1.40;99.90
39503;DHT22;26970;49.900;10.774;2023-04-06T03:10:49;-1.40;99.90
39503;DHT22;26970;49.900;10.774;2023-04-06T03:13:15;-1.40;99.90
39503;DHT22;26970;49.900;10.774;2023-04-06T03:15:41;-0.80;99.90
39503;DHT22;26970;49.900;10.774;2023-04-06T03:18:06;-1.40;99.90
39503;DHT22;26970;49.900;10.774;2023-04-06T03:20:32;-1.40;99.90
39503;DHT22;26970;49.900;10.774;2023-04-06T03:22:57;-1.40;99.90
39503;DHT22;26970;49.900;10.774;2023-04-06T03:25:23;-1.50;99.90
39503;DHT22;26970;49.900;10.774;2023-04-06T03:27:49;-1.50;99.90
39503;DHT22;26970;49.900;10.774;2023-04-06T03:30:14;-1.60;99.90
39503;DHT22;26970;49.900;10.774;2023-04-06T03:32:45;-1.70;99.90
39503;DHT22;26970;49.900;10.774;2023-04-06T03:35:11;-1.80;99.90
39503;DHT22;26970;49.900;10.774;2023-04-06T03:37:36;-1.90;99.90
39503;DHT22;26970;49.900;10.774;2023-04-06T03:40:03;-1.80;99.90
39503;DHT22;26970;49.900;10.774;2023-04-06T03:42:28;-1.80;99.90
39503;DHT22;26970;49.900;10.774;2023-04-06T03:44:54;-1.70;99.90
39503;DHT22;26970;49.900;10.774;2023-04-06T03:47:19;-1.70;99.90
39503;DHT22;26970;49.900;10.774;2023-04-06T03:49:45;-1.80;99.90
39503;DHT22;26970;49.900;10.774;2023-04-06T03:52:11;-1.80;99.90
39503;DHT22;26970;49.900;10.774;2023-04-06T03:54:36;-1.80;99.90
39503;DHT22;26970;49.900;10.774;2023-04-06T03:57:03;-1.90;99.90
39503;DHT22;26970;49.900;10.774;2023-04-06T03:59:29;-1.90;99.90
39503;DHT22;26970;49.900;10.774;2023-04-06T04:01:55;-2.00;99.90
39503;DHT22;26970;49.900;10.774;2023-04-06T04:04:20;-2.00;99.90
39503;DHT22;26970;49.900;10.774;2023-04-06T04:06:46;-2.00;99.90
39503;DHT22;26970;49.900;10.774;2023-04-06T04:09:11;-2.00;99.90
39503;DHT22;26970;49.900;10.774;2023-04-06T04:11:37;-2.00;99.90
39503;DHT22;26970;49.900;10.774;2023-04-06T04:14:03;-2.00;99.90
39503;DHT22;26970;49.900;10.774;2023-04-06T04:16:28;-2.00;99.90
39503;DHT22;26970;49.900;10.774;2023-04-06T04:18:54;-2.00;99.90
39503;DHT22;26970;49.900;10.774;2023-04-06T04:21:20;-2.00;99.90
39503;DHT22;26970;49.900;10.774;2023-04-06T04:23:45;-2.00;99.90
39503;DHT22;26970;49.900;10.774;2023-04-06T04:26:11;-2.00;99.90
39503;DHT22;26970;49.900;10.774;2023-04-06T04:28:37;-2.00;99.90
39503;DHT22;26970;49.900;10.774;2023-04-06T04:31:02;-2.00;99.90
39503;DHT22;26970;49.900;10.774;2023-04-06T04:33:28;-2.00;99.90
39503;DHT22;26970;49.900;10.774;2023-04-06T04:35:53;-2.00;99.90
39503;DHT22;26970;49.900;10.774;2023-04-06T04:38:19;-2.00;99.90
39503;DHT22;26970;49.900;10.774;2023-04-06T04:40:44;-2.00;99.90
39503;DHT22;26970;49.900;10.774;2023-04-06T04:43:10;-2.00;99.90
39503;DHT22;26970;49.900;10.774;2023-04-06T04:45:36;-2.00;99.90
39503;DHT22;26970;49.900;10.774;2023-04-06T04:48:01;-2.00;99.90
39503;DHT22;26970;49.900;10.774;2023-04-06T04:50:27;-2.10;99.90
39503;DHT22;26970;49.900;10.774;2023-04-06T04:52:52;-2.10;99.90
39503;DHT22;26970;49.900;10.774;2023-04-06T04:55:18;-2.10;99.90
39503;DHT22;26970;49.900;10.774;2023-04-06T04:57:44;-2.20;99.90
39503;DHT22;26970;49.900;10.774;2023-04-06T05:00:10;-2.10;99.90
39503;DHT22;26970;49.900;10.774;2023-04-06T05:02:36;-2.10;99.90
39503;DHT22;26970;49.900;10.774;2023-04-06T05:05:01;-2.20;99.90
39503;DHT22;26970;49.900;10.774;2023-04-06T05:07:27;-2.10;99.90
39503;DHT22;26970;49.900;10.774;2023-04-06T05:09:52;-2.10;99.90
39503;DHT22;26970;49.900;10.774;2023-04-06T05:12:19;-2.10;99.90
39503;DHT22;26970;49.900;10.774;2023-04-06T05:14:44;-1.90;99.90
39503;DHT22;26970;49.900;10.774;2023-04-06T05:17:10;-1.80;99.90
39503;DHT22;26970;49.900;10.774;2023-04-06T05:19:36;-1.60;99.90
39503;DHT22;26970;49.900;10.774;2023-04-06T05:22:01;-1.40;99.90
39503;DHT22;26970;49.900;10.774;2023-04-06T05:24:27;-1.30;99.90
39503;DHT22;26970;49.900;10.774;2023-04-06T05:26:53;-1.20;99.90
39503;DHT22;26970;49.900;10.774;2023-04-06T05:29:18;-1.00;99.90
39503;DHT22;26970;49.900;10.774;2023-04-06T05:31:45;-0.80;99.90
39503;DHT22;26970;49.900;10.774;2023-04-06T05:34:11;-0.80;99.90
39503;DHT22;26970;49.900;10.774;2023-04-06T05:36:37;-0.70;99.90
39503;DHT22;26970;49.900;10.774;2023-04-06T05:39:03;-0.60;99.90
39503;DHT22;26970;49.900;10.774;2023-04-06T05:41:28;-0.50;99.90
39503;DHT22;26970;49.900;10.774;2023-04-06T05:43:54;-0.30;99.90
39503;DHT22;26970;49.900;10.774;2023-04-06T05:46:20;-0.30;99.90
39503;DHT22;26970;49.900;10.774;2023-04-06T05:48:46;-0.10;99.90
39503;DHT22;26970;49.900;10.774;2023-04-06T05:51:11;0.10;99.90
39503;DHT22;26970;49.900;10.774;2023-04-06T05:53:37;0.20;99.90
39503;DHT22;26970;49.900;10.774;2023-04-06T05:56:03;0.30;99.90
39503;DHT22;26970;49.900;10.774;2023-04-06T05:58:29;0.40;99.90
39503;DHT22;26970;49.900;10.774;2023-04-06T06:00:58;0.50;99.90
39503;DHT22;26970;49.900;10.774;2023-04-06T06:03:24;0.60;99.90
39503;DHT22;26970;49.900;10.774;2023-04-06T06:05:50;0.70;99.90
39503;DHT22;26970;49.900;10.774;2023-04-06T06:08:15;0.80;99.90
39503;DHT22;26970;49.900;10.774;2023-04-06T06:10:41;0.80;99.90
39503;DHT22;26970;49.900;10.774;2023-04-06T06:13:07;1.00;99.90
39503;DHT22;26970;49.900;10.774;2023-04-06T06:15:32;1.00;99.90
39503;DHT22;26970;49.900;10.774;2023-04-06T06:17:58;1.20;99.90
39503;DHT22;26970;49.900;10.774;2023-04-06T06:20:24;1.40;99.90
39503;DHT22;26970;49.900;10.774;2023-04-06T06:22:49;1.60;99.90
39503;DHT22;26970;49.900;10.774;2023-04-06T06:25:15;1.70;99.90
39503;DHT22;26970;49.900;10.774;2023-04-06T06:27:41;1.90;99.90
39503;DHT22;26970;49.900;10.774;2023-04-06T06:30:07;2.10;99.90
39503;DHT22;26970;49.900;10.774;2023-04-06T06:32:35;2.20;99.90
39503;DHT22;26970;49.900;10.774;2023-04-06T06:35:01;2.20;99.90
39503;DHT22;26970;49.900;10.774;2023-04-06T06:37:26;2.40;99.90
39503;DHT22;26970;49.900;10.774;2023-04-06T06:39:52;2.60;99.90
39503;DHT22;26970;49.900;10.774;2023-04-06T06:42:21;2.90;99.90
39503;DHT22;26970;49.900;10.774;2023-04-06T06:44:46;2.90;99.90
39503;DHT22;26970;49.900;10.774;2023-04-06T06:47:12;3.00;99.90
39503;DHT22;26970;49.900;10.774;2023-04-06T06:49:37;3.20;99.90
39503;DHT22;26970;49.900;10.774;2023-04-06T06:52:06;3.00;99.90
39503;DHT22;26970;49.900;10.774;2023-04-06T06:54:32;3.10;99.90
39503;DHT22;26970;49.900;10.774;2023-04-06T06:56:57;3.70;99.90
39503;DHT22;26970;49.900;10.774;2023-04-06T06:59:27;3.40;99.90
39503;DHT22;26970;49.900;10.774;2023-04-06T07:01:53;3.40;99.90
39503;DHT22;26970;49.900;10.774;2023-04-06T07:04:18;3.90;99.90
39503;DHT22;26970;49.900;10.774;2023-04-06T07:06:44;3.40;99.90
39503;DHT22;26970;49.900;10.774;2023-04-06T07:09:10;3.70;99.90
39503;DHT22;26970;49.900;10.774;2023-04-06T07:11:36;3.70;99.90
39503;DHT22;26970;49.900;10.774;2023-04-06T07:14:01;3.70;99.90
39503;DHT22;26970;49.900;10.774;2023-04-06T07:16:27;3.80;99.90
39503;DHT22;26970;49.900;10.774;2023-04-06T07:18:52;3.90;99.90
39503;DHT22;26970;49.900;10.774;2023-04-06T07:21:18;3.90;99.90
39503;DHT22;26970;49.900;10.774;2023-04-06T07:23:43;4.00;99.90
39503;DHT22;26970;49.900;10.774;2023-04-06T07:26:09;4.10;99.90
39503;DHT22;26970;49.900;10.774;2023-04-06T07:28:35;4.20;99.90
39503;DHT22;26970;49.900;10.774;2023-04-06T07:31:00;4.80;99.90
39503;DHT22;26970;49.900;10.774;2023-04-06T07:33:26;4.20;99.90
39503;DHT22;26970;49.900;10.774;2023-04-06T07:35:55;4.20;99.90
39503;DHT22;26970;49.900;10.774;2023-04-06T07:38:21;4.40;99.90
39503;DHT22;26970;49.900;10.774;2023-04-06T07:40:46;4.50;99.90
39503;DHT22;26970;49.900;10.774;2023-04-06T07:43:12;4.60;99.90
39503;DHT22;26970;49.900;10.774;2023-04-06T07:45:37;4.70;99.90
39503;DHT22;26970;49.900;10.774;2023-04-06T07:48:03;4.80;99.90
39503;DHT22;26970;49.900;10.774;2023-04-06T07:50:29;5.00;99.90
39503;DHT22;26970;49.900;10.774;2023-04-06T07:52:54;5.10;99.90
39503;DHT22;26970;49.900;10.774;2023-04-06T07:55:23;5.20;99.90
39503;DHT22;26970;49.900;10.774;2023-04-06T07:57:48;5.40;99.90
39503;DHT22;26970;49.900;10.774;2023-04-06T08:00:14;5.50;99.90
39503;DHT22;26970;49.900;10.774;2023-04-06T08:02:40;5.70;99.90
39503;DHT22;26970;49.900;10.774;2023-04-06T08:05:05;6.00;99.90
39503;DHT22;26970;49.900;10.774;2023-04-06T08:07:31;5.90;99.90
39503;DHT22;26970;49.900;10.774;2023-04-06T08:09:56;6.40;99.90
39503;DHT22;26970;49.900;10.774;2023-04-06T08:12:22;6.50;99.90
39503;DHT22;26970;49.900;10.774;2023-04-06T08:14:48;6.20;99.90
39503;DHT22;26970;49.900;10.774;2023-04-06T08:17:13;6.30;99.90
39503;DHT22;26970;49.900;10.774;2023-04-06T08:19:39;6.30;99.90
39503;DHT22;26970;49.900;10.774;2023-04-06T08:22:04;6.30;99.90
39503;DHT22;26970;49.900;10.774;2023-04-06T08:24:30;6.40;99.90
39503;DHT22;26970;49.900;10.774;2023-04-06T08:26:57;6.70;99.90
39503;DHT22;26970;49.900;10.774;2023-04-06T08:29:23;6.80;99.90
39503;DHT22;26970;49.900;10.774;2023-04-06T08:31:49;6.90;99.90
39503;DHT22;26970;49.900;10.774;2023-04-06T08:34:14;7.00;99.90
39503;DHT22;26970;49.900;10.774;2023-04-06T08:36:41;7.10;99.90
39503;DHT22;26970;49.900;10.774;2023-04-06T08:39:06;7.10;99.90
39503;DHT22;26970;49.900;10.774;2023-04-06T08:41:32;7.30;99.90
39503;DHT22;26970;49.900;10.774;2023-04-06T08:44:02;7.50;99.90
39503;DHT22;26970;49.900;10.774;2023-04-06T08:46:29;7.70;99.90
39503;DHT22;26970;49.900;10.774;2023-04-06T08:48:56;7.80;99.90
39503;DHT22;26970;49.900;10.774;2023-04-06T08:51:26;7.70;99.90
39503;DHT22;26970;49.900;10.774;2023-04-06T08:53:53;7.70;99.90
39503;DHT22;26970;49.900;10.774;2023-04-06T08:56:21;8.00;99.90
39503;DHT22;26970;49.900;10.774;2023-04-06T08:58:47;8.20;99.90
39503;DHT22;26970;49.900;10.774;2023-04-06T09:01:14;8.20;99.90
39503;DHT22;26970;49.900;10.774;2023-04-06T09:03:42;8.50;99.90
39503;DHT22;26970;49.900;10.774;2023-04-06T09:06:09;8.50;99.90
39503;DHT22;26970;49.900;10.774;2023-04-06T09:08:38;8.40;99.90
39503;DHT22;26970;49.900;10.774;2023-04-06T09:11:04;8.60;99.90
39503;DHT22;26970;49.900;10.774;2023-04-06T09:13:30;8.80;99.90
39503;DHT22;26970;49.900;10.774;2023-04-06T09:16:01;9.00;99.90
39503;DHT22;26970;49.900;10.774;2023-04-06T09:18:33;9.00;99.90
39503;DHT22;26970;49.900;10.774;2023-04-06T09:21:03;8.90;99.90
39503;DHT22;26970;49.900;10.774;2023-04-06T09:23:29;8.90;99.90
39503;DHT22;26970;49.900;10.774;2023-04-06T09:26:12;9.00;99.90
39503;DHT22;26970;49.900;10.774;2023-04-06T09:28:48;9.10;99.90
39503;DHT22;26970;49.900;10.774;2023-04-06T09:31:15;9.10;99.90
39503;DHT22;26970;49.900;10.774;2023-04-06T09:33:43;9.40;99.90
39503;DHT22;26970;49.900;10.774;2023-04-06T09:36:09;9.50;99.50
39503;DHT22;26970;49.900;10.774;2023-04-06T09:38:37;9.60;99.40
39503;DHT22;26970;49.900;10.774;2023-04-06T09:41:03;9.50;98.90
39503;DHT22;26970;49.900;10.774;2023-04-06T09:43:29;9.70;99.40
39503;DHT22;26970;49.900;10.774;2023-04-06T09:45:56;9.90;98.70
39503;DHT22;26970;49.900;10.774;2023-04-06T09:48:22;10.10;99.00
39503;DHT22;26970;49.900;10.774;2023-04-06T09:50:50;10.10;97.50
39503;DHT22;26970;49.900;10.774;2023-04-06T09:53:19;10.20;97.60
39503;DHT22;26970;49.900;10.774;2023-04-06T09:55:46;10.20;97.50
39503;DHT22;26970;49.900;10.774;2023-04-06T09:58:19;10.20;98.00
39503;DHT22;26970;49.900;10.774;2023-04-06T10:01:01;10.30;97.00
39503;DHT22;26970;49.900;10.774;2023-04-06T10:06:13;10.10;96.40
39503;DHT22;26970;49.900;10.774;2023-04-06T10:08:40;10.10;98.40
39503;DHT22;26970;49.900;10.774;2023-04-06T10:11:09;10.10;97.20
39503;DHT22;26970;49.900;10.774;2023-04-06T10:13:36;10.30;96.90
39503;DHT22;26970;49.900;10.774;2023-04-06T10:16:01;10.30;95.00
39503;DHT22;26970;49.900;10.774;2023-04-06T10:18:28;10.20;96.20
39503;DHT22;26970;49.900;10.774;2023-04-06T10:21:16;10.20;95.90
39503;DHT22;26970;49.900;10.774;2023-04-06T10:23:48;10.20;95.70
39503;DHT22;26970;49.900;10.774;2023-04-06T10:26:15;10.20;94.70
39503;DHT22;26970;49.900;10.774;2023-04-06T10:28:43;10.10;94.10
39503;DHT22;26970;49.900;10.774;2023-04-06T10:31:09;10.10;93.90
39503;DHT22;26970;49.900;10.774;2023-04-06T10:33:35;10.10;94.30
39503;DHT22;26970;49.900;10.774;2023-04-06T10:36:11;10.50;97.00
39503;DHT22;26970;49.900;10.774;2023-04-06T10:38:38;10.60;95.40
39503;DHT22;26970;49.900;10.774;2023-04-06T10:41:05;10.70;94.50
39503;DHT22;26970;49.900;10.774;2023-04-06T10:43:39;10.60;92.30
39503;DHT22;26970;49.900;10.774;2023-04-06T10:46:06;10.50;93.80
39503;DHT22;26970;49.900;10.774;2023-04-06T10:48:43;10.40;93.70
39503;DHT22;26970;49.900;10.774;2023-04-06T10:51:18;10.40;91.70
39503;DHT22;26970;49.900;10.774;2023-04-06T10:53:46;10.40;93.00
39503;DHT22;26970;49.900;10.774;2023-04-06T10:56:17;10.40;92.20
39503;DHT22;26970;49.900;10.774;2023-04-06T10:58:52;10.50;92.20
39503;DHT22;26970;49.900;10.774;2023-04-06T11:01:19;10.50;91.30
39503;DHT22;26970;49.900;10.774;2023-04-06T11:03:46;10.60;92.50
39503;DHT22;26970;49.900;10.774;2023-04-06T11:06:24;10.70;92.30
39503;DHT22;26970;49.900;10.774;2023-04-06T11:08:51;10.60;91.60
39503;DHT22;26970;49.900;10.774;2023-04-06T11:11:18;10.70;92.60
39503;DHT22;26970;49.900;10.774;2023-04-06T11:13:58;10.70;91.50
39503;DHT22;26970;49.900;10.774;2023-04-06T11:16:29;10.70;91.60
39503;DHT22;26970;49.900;10.774;2023-04-06T11:19:02;10.70;92.30
39503;DHT22;26970;49.900;10.774;2023-04-06T11:21:35;10.70;91.70
39503;DHT22;26970;49.900;10.774;2023-04-06T11:24:12;10.30;92.10
39503;DHT22;26970;49.900;10.774;2023-04-06T11:26:51;10.60;90.70
39503;DHT22;26970;49.900;10.774;2023-04-06T11:29:25;10.00;90.40
39503;DHT22;26970;49.900;10.774;2023-04-06T11:32:00;10.60;91.00
39503;DHT22;26970;49.900;10.774;2023-04-06T11:34:36;10.60;90.50
39503;DHT22;26970;49.900;10.774;2023-04-06T11:37:09;10.80;91.70
39503;DHT22;26970;49.900;10.774;2023-04-06T11:39:54;10.50;91.20
39503;DHT22;26970;49.900;10.774;2023-04-06T11:42:28;10.40;91.30
39503;DHT22;26970;49.900;10.774;2023-04-06T11:44:56;10.70;92.30
39503;DHT22;26970;49.900;10.774;2023-04-06T11:47:38;10.70;91.40
39503;DHT22;26970;49.900;10.774;2023-04-06T11:50:11;10.80;91.10
39503;DHT22;26970;49.900;10.774;2023-04-06T11:52:43;11.50;91.00
39503;DHT22;26970;49.900;10.774;2023-04-06T11:55:14;10.80;89.90
39503;DHT22;26970;49.900;10.774;2023-04-06T11:57:41;10.80;90.60
39503;DHT22;26970;49.900;10.774;2023-04-06T12:00:08;11.30;91.70
39503;DHT22;26970;49.900;10.774;2023-04-06T12:02:37;11.10;90.70
39503;DHT22;26970;49.900;10.774;2023-04-06T12:05:04;10.60;90.50
39503;DHT22;26970;49.900;10.774;2023-04-06T12:07:31;11.00;88.00
39503;DHT22;26970;49.900;10.774;2023-04-06T12:09:58;10.90;85.60
39503;DHT22;26970;49.900;10.774;2023-04-06T12:12:24;10.50;89.60
39503;DHT22;26970;49.900;10.774;2023-04-06T12:14:49;10.20;88.80
39503;DHT22;26970;49.900;10.774;2023-04-06T12:17:15;10.20;89.30
39503;DHT22;26970;49.900;10.774;2023-04-06T12:19:40;10.40;89.60
39503;DHT22;26970;49.900;10.774;2023-04-06T12:22:06;10.60;88.00
39503;DHT22;26970;49.900;10.774;2023-04-06T12:24:31;10.80;87.90
39503;DHT22;26970;49.900;10.774;2023-04-06T12:26:57;10.90;89.80
39503;DHT22;26970;49.900;10.774;2023-04-06T12:29:24;11.10;86.90
39503;DHT22;26970;49.900;10.774;2023-04-06T12:31:50;11.10;89.60
39503;DHT22;26970;49.900;10.774;2023-04-06T12:34:19;11.10;84.10
39503;DHT22;26970;49.900;10.774;2023-04-06T12:36:45;11.10;82.70
39503;DHT22;26970;49.900;10.774;2023-04-06T12:39:10;11.10;85.20
39503;DHT22;26970;49.900;10.774;2023-04-06T12:41:36;10.90;84.90
39503;DHT22;26970;49.900;10.774;2023-04-06T12:44:02;11.20;87.80
39503;DHT22;26970;49.900;10.774;2023-04-06T12:46:41;11.40;84.80
39503;DHT22;26970;49.900;10.774;2023-04-06T12:49:08;11.70;83.90
39503;DHT22;26970;49.900;10.774;2023-04-06T12:51:36;11.40;84.80
39503;DHT22;26970;49.900;10.774;2023-04-06T12:54:04;11.80;86.80
39503;DHT22;26970;49.900;10.774;2023-04-06T12:56:29;11.40;86.10
39503;DHT22;26970;49.900;10.774;2023-04-06T12:58:56;11.50;87.50
39503;DHT22;26970;49.900;10.774;2023-04-06T13:01:21;11.50;83.90
39503;DHT22;26970;49.900;10.774;2023-04-06T13:03:47;11.40;85.40
39503;DHT22;26970;49.900;10.774;2023-04-06T13:06:12;11.40;84.20
39503;DHT22;26970;49.900;10.774;2023-04-06T13:08:39;11.40;86.30
39503;DHT22;26970;49.900;10.774;2023-04-06T13:11:05;11.90;90.10
39503;DHT22;26970;49.900;10.774;2023-04-06T13:13:34;11.80;86.00
39503;DHT22;26970;49.900;10.774;2023-04-06T13:16:02;11.70;88.00
39503;DHT22;26970;49.900;10.774;2023-04-06T13:18:29;11.90;90.00
39503;DHT22;26970;49.900;10.774;2023-04-06T13:20:56;12.00;86.30
39503;DHT22;26970;49.900;10.774;2023-04-06T13:23:22;12.10;86.90
39503;DHT22;26970;49.900;10.774;2023-04-06T13:25:56;12.00;85.60
39503;DHT22;26970;49.900;10.774;2023-04-06T13:28:21;11.70;83.50
39503;DHT22;26970;49.900;10.774;2023-04-06T13:30:48;11.70;83.40
39503;DHT22;26970;49.900;10.774;2023-04-06T13:33:14;12.20;88.80
39503;DHT22;26970;49.900;10.774;2023-04-06T13:35:39;11.50;86.00
39503;DHT22;26970;49.900;10.774;2023-04-06T13:38:05;11.60;88.40
39503;DHT22;26970;49.900;10.774;2023-04-06T13:40:31;11.60;86.90
39503;DHT22;26970;49.900;10.774;2023-04-06T13:42:56;11.60;85.50
39503;DHT22;26970;49.900;10.774;2023-04-06T13:45:22;11.60;83.50
39503;DHT22;26970;49.900;10.774;2023-04-06T13:47:47;11.50;83.00
39503;DHT22;26970;49.900;10.774;2023-04-06T13:50:13;11.30;83.60
39503;DHT22;26970;49.900;10.774;2023-04-06T13:52:38;11.10;84.50
39503;DHT22;26970;49.900;10.774;2023-04-06T13:55:04;11.20;86.70
39503;DHT22;26970;49.900;10.774;2023-04-06T13:57:30;11.10;87.60
39503;DHT22;26970;49.900;10.774;2023-04-06T13:59:56;11.00;87.70
39503;DHT22;26970;49.900;10.774;2023-04-06T14:02:21;11.90;89.00
39503;DHT22;26970;49.900;10.774;2023-04-06T14:04:52;11.10;85.60
39503;DHT22;26970;49.900;10.774;2023-04-06T14:07:20;11.00;85.70
39503;DHT22;26970;49.900;10.774;2023-04-06T14:09:46;11.20;86.50
39503;DHT22;26970;49.900;10.774;2023-04-06T14:12:11;10.90;87.00
39503;DHT22;26970;49.900;10.774;2023-04-06T14:14:37;10.70;85.30
39503;DHT22;26970;49.900;10.774;2023-04-06T14:17:02;10.60;86.20
39503;DHT22;26970;49.900;10.774;2023-04-06T14:19:28;10.80;87.10
39503;DHT22;26970;49.900;10.774;2023-04-06T14:21:53;10.40;86.50
39503;DHT22;26970;49.900;10.774;2023-04-06T14:24:20;10.40;86.90
39503;DHT22;26970;49.900;10.774;2023-04-06T14:26:45;10.40;86.80
39503;DHT22;26970;49.900;10.774;2023-04-06T14:29:11;10.50;88.00
39503;DHT22;26970;49.900;10.774;2023-04-06T14:31:37;10.60;86.50
39503;DHT22;26970;49.900;10.774;2023-04-06T14:34:03;10.80;89.60
39503;DHT22;26970;49.900;10.774;2023-04-06T14:36:32;11.00;91.50
39503;DHT22;26970;49.900;10.774;2023-04-06T14:39:05;11.30;88.40
39503;DHT22;26970;49.900;10.774;2023-04-06T14:41:31;11.30;86.20
39503;DHT22;26970;49.900;10.774;2023-04-06T14:43:58;11.40;84.70
39503;DHT22;26970;49.900;10.774;2023-04-06T14:46:24;11.40;86.50
39503;DHT22;26970;49.900;10.774;2023-04-06T14:48:49;11.40;86.30
39503;DHT22;26970;49.900;10.774;2023-04-06T14:51:16;11.30;85.10
39503;DHT22;26970;49.900;10.774;2023-04-06T14:53:42;11.30;88.60
39503;DHT22;26970;49.900;10.774;2023-04-06T14:56:07;11.20;86.80
39503;DHT22;26970;49.900;10.774;2023-04-06T14:58:33;11.00;87.50
39503;DHT22;26970;49.900;10.774;2023-04-06T15:01:00;10.90;85.40
39503;DHT22;26970;49.900;10.774;2023-04-06T15:03:29;10.90;88.50
39503;DHT22;26970;49.900;10.774;2023-04-06T15:05:56;10.70;88.50
39503;DHT22;26970;49.900;10.774;2023-04-06T15:08:23;11.00;87.70
39503;DHT22;26970;49.900;10.774;2023-04-06T15:10:49;10.70;88.00
39503;DHT22;26970;49.900;10.774;2023-04-06T15:13:18;10.80;87.40
39503;DHT22;26970;49.900;10.774;2023-04-06T15:15:44;10.90;88.40
39503;DHT22;26970;49.900;10.774;2023-04-06T15:18:10;10.90;87.00
39503;DHT22;26970;49.900;10.774;2023-04-06T15:20:36;10.90;89.00
39503;DHT22;26970;49.900;10.774;2023-04-06T15:23:02;11.00;89.90